Aérodrome :
LOGIN :

S'inscrire | Disclaimer

   EN    FR    IT 

 










Légende :    VFR   VFR Marginal   IFR   IFR Intensif   IFR Très Intensif
Visi : 
Plafond : 
>= 8 km
>= 3000ft
5 à 8 km
1000 à 3000 ft
1500m à 5 km
500 à 1000 ft
800 à 1500m
200 à 500 ft
< 800m
< 200 ft
Symboles :   Orages  Brouillard  Fortes neiges  Fortes précipitations  Vent > 20 kt
SIGMETs :   Divers  Orages  Givrage  Turbulence  Onde Orograph.  Cendres Volcan.







- Altitude de l'aérodrome : 49 ft
- Code IATA : SEN
- Voir les cartes d'approche


EGMC - Southend

DERNIER METAR :
  • 190050Z VRB03KT 9999 -RA FEW008 FEW035CB 14/12 Q1008

METARs EXPIRÉS :
  • 190020Z 06012KT 9999 -RA VCTS FEW026 SCT035CB 14/12 Q1008
  • 182350Z VRB03KT 9999 -TSRA FEW013 SCT027CB 14/12 Q1010
  • 182320Z VRB03KT 9999 -TSRA SCT028CB 14/12 Q1010
  • 182250Z 35005KT 310V050 9999 VCTS FEW027 FEW035CB 15/13 Q1010
  • 182220Z 02004KT 9999 FEW025CB 15/12 Q1010

TAF TAF EGMC
Valide du 19 à 00h jusqu'au 19 à 09h UTC


182300Z 1900/1909 02005KT 9999 SCT025
TEMPO 1900/1909 5000 SHRA
PROB40
TEMPO 1900/1909 VRB15G25KT 3000 +SHRA TSRA BKN010 BKN030CB
Pas de NOTAMs connus pour ce terrain.
1 SIGMET publié pour la FIR London (EGTT) :
 
Orages fréquents
EGTT SIGMET 06 VALID 182300/190200 EGRR
EGTT LONDON FIR FRQ TS FCST WI N5114 W00010 - N5218 E00150 - N5217 E00240 - N5128 E00146 - N5102 E00136 - N5100 E00128 - N5040 E00128 - N5000 W00015 - N5000 W00033 - N5114 W00010 TOP FL330 MOV NE 25KT NC=



MET'MAP, la Météo Aéronautique d'un coup d'oeil ! - Copyright ORBIFLY Décembre 2007 - Disclaimer

ORBIFLY MET'MAP TEAM :

Programmation & Développement : Alexandra Zaïnal
Conception & Développement : Baudouin d'Aumeries
Co-Programmation & Développement : Marc-Olivier Méhu
Soutien technique & logistique : Manuel Goepfert

Contact : metmap@orbifly.com




SOURCES & CREDITS :

   NOAA